Time;durP1;ratioP1;P1;durP2;ratioP2;P2;SDS_P1;SDS_P2;PMS_P1;PMS_P2;Temp;Humidity;BMP_temperature;BMP_pressure;BME280_temperature;BME280_humidity;BME280_pressure;Samples;Min_cycle;Max_cycle;Signal;HPM_P1;HPM_P2
2022/09/25 00:00:58;;;;;;;7.25;3.92;;;;;;;11.16;67.92;100100.72;1801113;79;21224;-78
2022/09/25 00:04:03;;;;;;;8.35;4.22;;;;;;;11.20;67.77;100097.94;1801712;79;21173;-79
2022/09/25 00:07:09;;;;;;;5.47;3.65;;;;;;;11.25;67.50;100098.23;1802605;79;21189;-78
2022/09/25 00:10:16;;;;;;;8.60;3.75;;;;;;;11.16;67.70;100102.93;1802621;79;21189;-78
2022/09/25 00:13:24;;;;;;;5.10;3.77;;;;;;;11.28;67.40;100099.21;1802174;79;21303;-78
2022/09/25 00:16:33;;;;;;;5.35;3.90;;;;;;;11.38;66.95;100091.57;1802713;79;21807;-77
2022/09/25 00:19:49;;;;;;;4.47;3.45;;;;;;;11.35;66.87;100102.92;1802698;79;21716;-78
2022/09/25 00:22:55;;;;;;;5.17;3.80;;;;;;;11.36;66.82;100103.77;1801190;79;21236;-78
2022/09/25 00:26:02;;;;;;;9.13;3.98;;;;;;;11.26;66.93;100091.72;1802659;79;21783;-78
2022/09/25 00:29:07;;;;;;;9.78;4.42;;;;;;;11.23;66.96;100101.13;1801934;79;21195;-78
2022/09/25 00:32:16;;;;;;;8.85;4.00;;;;;;;11.24;66.85;100098.76;1802725;79;21527;-78
2022/09/25 00:35:22;;;;;;;7.40;4.22;;;;;;;11.12;67.27;100100.75;1801229;79;21232;-78
2022/09/25 00:38:28;;;;;;;6.92;4.37;;;;;;;11.02;67.50;100103.74;1801117;79;21177;-78
2022/09/25 00:41:34;;;;;;;5.35;3.90;;;;;;;11.17;67.14;100099.67;1775483;79;21219;-78
2022/09/25 00:44:58;;;;;;;;;;;;;;;11.02;67.47;100100.16;1778340;81;21751;-78
2022/09/25 00:48:06;;;;;;;5.95;4.20;;;;;;;11.05;67.37;100099.77;1776708;81;20211;-78
2022/09/25 00:51:12;;;;;;;5.62;3.83;;;;;;;10.95;67.58;100102.23;1775640;81;21244;-78
2022/09/25 00:54:23;;;;;;;5.47;3.80;;;;;;;11.01;67.48;100099.31;1774870;81;21549;-78
2022/09/25 00:57:30;;;;;;;4.60;3.15;;;;;;;10.98;67.41;100110.09;1776388;81;21228;-78
2022/09/25 01:00:36;;;;;;;5.40;4.22;;;;;;;10.97;67.43;100101.56;1776346;81;21260;-78
2022/09/25 01:03:45;;;;;;;6.42;3.33;;;;;;;10.91;67.50;100105.00;1776407;81;21540;-78
2022/09/25 01:06:50;;;;;;;5.25;3.40;;;;;;;10.87;67.59;100110.54;1776803;81;21228;-78
2022/09/25 01:09:58;;;;;;;4.12;3.08;;;;;;;10.96;67.50;100112.66;1774981;80;21184;-78
2022/09/25 01:13:03;;;;;;;4.83;3.62;;;;;;;10.98;67.32;100110.09;1776631;81;21240;-79
2022/09/25 01:16:28;;;;;;;4.62;3.60;;;;;;;10.90;67.58;100104.68;1776612;81;21188;-78
2022/09/25 01:19:44;;;;;;;3.87;3.00;;;;;;;10.87;67.65;100106.44;1776567;81;21224;-78
2022/09/25 01:23:29;;;;;;;4.08;3.47;;;;;;;10.80;67.92;100108.19;1776560;81;21275;-78
2022/09/25 01:26:39;;;;;;;4.78;3.30;;;;;;;10.85;67.82;100109.85;1776559;81;21185;-78
2022/09/25 01:29:52;;;;;;;6.00;3.58;;;;;;;10.79;67.90;100101.02;1776337;81;21200;-78
2022/09/25 01:33:20;;;;;;;5.75;3.72;;;;;;;10.83;67.65;100104.25;1776549;81;21188;-78
2022/09/25 01:36:44;;;;;;;3.72;3.12;;;;;;;10.98;67.16;100104.63;1776637;81;21184;-78
2022/09/25 01:39:59;;;;;;;5.00;3.02;;;;;;;10.95;66.93;100104.98;1777587;81;21133;-78
2022/09/25 01:43:21;;;;;;;9.40;3.30;;;;;;;10.88;66.89;100108.65;1813639;79;21759;-78
2022/09/25 01:46:29;;;;;;;8.38;3.60;;;;;;;10.82;66.89;100108.88;1812091;79;21208;-78
2022/09/25 01:49:45;;;;;;;9.33;3.85;;;;;;;10.76;67.00;100108.21;1813664;79;21165;-78
2022/09/25 01:52:58;;;;;;;4.40;3.45;;;;;;;10.73;66.95;100105.34;1813648;79;21683;-78
2022/09/25 01:56:11;;;;;;;4.00;3.20;;;;;;;10.66;67.21;100108.45;1812164;79;21192;-79
2022/09/25 01:59:31;;;;;;;5.40;3.72;;;;;;;10.59;67.32;100110.23;1813533;79;21185;-78
2022/09/25 02:02:47;;;;;;;5.40;3.45;;;;;;;10.45;67.64;100105.53;1813598;79;21736;-78
2022/09/25 02:06:06;;;;;;;6.15;3.90;;;;;;;10.42;67.79;100106.73;1812445;79;21172;-78
2022/09/25 02:09:16;;;;;;;5.22;3.15;;;;;;;10.46;67.65;100109.45;1813613;79;21743;-78
2022/09/25 02:12:33;;;;;;;7.97;3.58;;;;;;;10.51;67.23;100111.64;1813746;79;21833;-78
2022/09/25 02:15:42;;;;;;;5.37;4.12;;;;;;;10.45;67.11;100115.95;1812713;79;21255;-78
2022/09/25 02:22:25;;;;;;;7.95;3.95;;;;;;;10.23;67.55;100120.83;1813520;79;21204;-78
2022/09/25 02:26:05;;;;;;;5.17;3.87;;;;;;;10.19;67.58;100120.33;1812832;79;21184;-78
2022/09/25 02:29:11;;;;;;;4.42;3.35;;;;;;;10.12;67.77;100119.88;1812072;79;22626;-78
2022/09/25 02:32:18;;;;;;;6.33;3.77;;;;;;;10.18;67.50;100120.52;1813683;79;21165;-78
2022/09/25 02:35:23;;;;;;;4.80;3.83;;;;;;;10.07;67.75;100127.72;1813094;79;21224;-78
2022/09/25 02:38:31;;;;;;;6.10;3.60;;;;;;;9.98;67.96;100127.78;1813482;79;22497;-78
2022/09/25 02:41:48;;;;;;;5.85;3.25;;;;;;;9.89;68.26;100132.93;1811268;79;21263;-78
2022/09/25 02:45:24;;;;;;;5.95;4.12;;;;;;;9.85;68.34;100136.19;1811251;79;21189;-78
2022/09/25 02:48:41;;;;;;;4.05;3.55;;;;;;;9.84;68.30;100135.34;1811190;79;21176;-78
2022/09/25 02:52:09;;;;;;;4.85;3.80;;;;;;;9.80;68.30;100138.60;1809793;79;21842;-78
2022/09/25 02:55:47;;;;;;;9.80;4.28;;;;;;;9.84;68.37;100143.54;1787132;79;21799;-78
2022/09/25 02:59:01;;;;;;;6.00;3.92;;;;;;;9.76;68.73;100142.19;1809732;79;21703;-78
2022/09/25 03:02:07;;;;;;;6.28;4.53;;;;;;;9.66;69.16;100141.54;1787968;79;21181;-78
2022/09/25 03:05:14;;;;;;;9.63;4.60;;;;;;;9.67;69.27;100144.09;1767464;79;21716;-77
2022/09/25 03:08:38;;;;;;;5.67;4.10;;;;;;;9.69;69.30;100140.69;1786871;79;21819;-78
2022/09/25 03:11:44;;;;;;;5.70;4.37;;;;;;;9.59;69.83;100150.08;1811225;79;21767;-78
2022/09/25 03:14:44;;;;;;;5.53;4.10;;;;;;;9.53;70.14;100141.22;1811335;79;21181;-78
2022/09/25 03:17:38;;;;;;;5.33;4.05;;;;;;;9.52;70.33;100149.08;1811126;79;21212;-78
2022/09/25 03:20:44;;;;;;;7.40;4.30;;;;;;;9.48;70.48;100149.42;1811578;79;21180;-78
2022/09/25 03:23:51;;;;;;;8.88;4.80;;;;;;;9.51;70.52;100146.02;1811231;79;21173;-78
2022/09/25 03:26:57;;;;;;;5.55;4.30;;;;;;;9.67;70.03;100147.33;1810148;79;21243;-78
2022/09/25 03:30:04;;;;;;;5.75;4.47;;;;;;;9.52;70.55;100151.30;1811182;79;21248;-78
2022/09/25 03:33:11;;;;;;;6.72;4.90;;;;;;;9.56;70.37;100158.12;1811260;79;21287;-78
2022/09/25 03:36:25;;;;;;;8.65;4.97;;;;;;;9.53;70.44;100160.33;1811331;79;21181;-78
2022/09/25 03:39:31;;;;;;;6.20;4.83;;;;;;;9.51;70.25;100159.16;1811017;79;21264;-79
2022/09/25 03:42:37;;;;;;;10.23;5.25;;;;;;;9.55;69.77;100159.63;1809555;79;21799;-78
2022/09/25 03:45:43;;;;;;;10.85;5.45;;;;;;;9.44;69.80;100164.44;1811192;79;21358;-78
2022/09/25 03:48:48;;;;;;;11.90;5.05;;;;;;;9.34;69.92;100167.86;1809709;79;21243;-78
2022/09/25 03:51:56;;;;;;;9.28;5.28;;;;;;;9.32;70.40;100178.63;1809846;79;21211;-79
2022/09/25 03:55:01;;;;;;;8.55;5.30;;;;;;;9.38;70.23;100173.32;1810193;79;21255;-79
2022/09/25 03:58:07;;;;;;;9.63;5.62;;;;;;;9.48;70.17;100173.14;1809638;79;21184;-78
2022/09/25 04:01:14;;;;;;;8.88;5.45;;;;;;;9.43;70.40;100171.44;1811232;79;21176;-78
2022/09/25 04:04:19;;;;;;;8.23;5.28;;;;;;;9.45;70.46;100178.41;1811103;79;21716;-78
2022/09/25 04:07:26;;;;;;;7.70;5.40;;;;;;;9.51;70.70;100184.24;1809807;79;21125;-78
2022/09/25 04:10:37;;;;;;;8.78;5.35;;;;;;;9.70;70.48;100182.50;1810778;79;21223;-78
2022/09/25 04:13:43;;;;;;;10.13;6.12;;;;;;;9.81;70.25;100183.48;1809764;79;21187;-78
2022/09/25 04:16:50;;;;;;;9.98;5.95;;;;;;;9.87;70.43;100192.86;1810664;79;21343;-79
2022/09/25 04:19:56;;;;;;;8.35;5.67;;;;;;;10.02;70.30;100194.34;1811048;79;21223;-78
2022/09/25 04:23:01;;;;;;;9.30;6.37;;;;;;;10.10;70.37;100192.45;1811308;79;21134;-79
2022/09/25 04:26:06;;;;;;;9.33;6.00;;;;;;;10.28;70.10;100194.98;1810460;79;21236;-79
2022/09/25 04:29:14;;;;;;;7.65;5.40;;;;;;;10.30;70.17;100194.28;1811376;79;21161;-79
2022/09/25 04:35:43;;;;;;;10.82;6.33;;;;;;;10.74;69.44;100195.09;1811422;79;21193;-79
2022/09/25 04:38:49;;;;;;;10.23;5.05;;;;;;;10.80;69.70;100199.84;1811323;79;21169;-79
2022/09/25 04:41:54;;;;;;;12.05;5.25;;;;;;;10.89;70.00;100200.13;1811257;79;21189;-79
2022/09/25 04:45:01;;;;;;;9.58;5.45;;;;;;;11.10;69.73;100198.60;1802808;79;21209;-79
2022/09/25 04:48:07;;;;;;;7.37;4.95;;;;;;;11.36;69.34;100194.98;1801632;79;21478;-78
2022/09/25 04:51:12;;;;;;;5.80;4.40;;;;;;;11.56;69.09;100198.58;1801755;79;21204;-79
2022/09/25 04:54:17;;;;;;;6.03;4.62;;;;;;;11.72;68.90;100195.69;1802796;79;21227;-79
2022/09/25 04:57:27;;;;;;;6.37;4.95;;;;;;;11.81;68.84;100204.66;1802161;79;21209;-79
2022/09/25 05:00:37;;;;;;;8.75;5.40;;;;;;;11.81;69.02;100202.80;1800254;79;21187;-78
2022/09/25 05:03:42;;;;;;;13.45;5.83;;;;;;;11.95;68.88;100204.73;1802637;79;21748;-78
2022/09/25 05:06:50;;;;;;;7.50;4.55;;;;;;;12.14;68.47;100202.44;1802708;79;21221;-78
2022/09/25 05:09:57;;;;;;;8.53;5.15;;;;;;;12.26;68.19;100210.02;1801237;79;21760;-78
2022/09/25 05:13:08;;;;;;;7.97;4.90;;;;;;;12.31;68.09;100214.93;1801309;79;22399;-78
2022/09/25 05:16:15;;;;;;;9.73;4.12;;;;;;;12.49;67.71;100216.77;1802240;79;21213;-79
2022/09/25 05:19:20;;;;;;;5.28;3.77;;;;;;;12.62;67.32;100224.33;1801138;79;21240;-79
2022/09/25 05:22:27;;;;;;;5.83;4.00;;;;;;;12.71;67.11;100226.44;1802519;79;21181;-78
2022/09/25 05:25:32;;;;;;;8.63;4.37;;;;;;;12.98;66.36;100232.55;1802642;79;21149;-78
2022/09/25 05:28:38;;;;;;;6.22;4.17;;;;;;;13.16;65.38;100231.27;1801706;79;22098;-79
2022/09/25 05:31:45;;;;;;;7.87;4.28;;;;;;;13.28;64.90;100242.95;1802046;79;21214;-79
2022/09/25 05:34:52;;;;;;;5.67;3.83;;;;;;;13.45;64.32;100238.03;1801118;79;21161;-79
2022/09/25 05:37:58;;;;;;;7.53;4.20;;;;;;;13.54;63.60;100240.98;1801913;79;21212;-78
2022/09/25 05:41:13;;;;;;;5.67;3.50;;;;;;;13.58;63.32;100239.22;1802628;79;21484;-78
2022/09/25 05:44:20;;;;;;;9.83;4.85;;;;;;;13.71;63.13;100239.34;1801210;79;21192;-78
2022/09/25 05:47:26;;;;;;;5.72;4.08;;;;;;;13.84;62.92;100242.73;1801720;79;21200;-78
2022/09/25 05:50:31;;;;;;;6.10;3.83;;;;;;;13.91;62.82;100245.84;1802260;79;21256;-78
2022/09/25 05:53:37;;;;;;;9.83;4.22;;;;;;;13.92;62.77;100243.94;1802427;79;21188;-78
2022/09/25 05:56:42;;;;;;;6.87;4.30;;;;;;;14.04;62.36;100250.60;1802588;79;21167;-78
2022/09/25 05:59:41;;;;;;;8.15;3.92;;;;;;;14.23;62.14;100242.16;1802756;79;21181;-78
2022/09/25 06:02:49;;;;;;;4.65;3.50;;;;;;;14.38;61.49;100237.91;1801716;79;21209;-78
2022/09/25 06:05:55;;;;;;;6.55;3.77;;;;;;;14.41;61.23;100241.11;1802460;79;21173;-78
2022/09/25 06:08:55;;;;;;;7.20;4.03;;;;;;;14.53;61.15;100244.16;1800911;79;21799;-78
2022/09/25 06:12:01;;;;;;;6.55;3.83;;;;;;;14.58;60.83;100252.65;1802278;79;21294;-78
2022/09/25 06:15:07;;;;;;;5.70;3.50;;;;;;;14.77;60.04;100251.05;1768572;81;21212;-79
2022/09/25 06:18:13;;;;;;;4.85;3.45;;;;;;;14.71;60.25;100254.63;1769020;81;21275;-78
2022/09/25 06:21:20;;;;;;;6.97;3.25;;;;;;;14.78;59.81;100256.90;1770221;81;21476;-79
2022/09/25 06:24:26;;;;;;;6.35;3.30;;;;;;;14.88;59.15;100255.14;1770439;81;21462;-79
2022/09/25 06:27:32;;;;;;;5.65;3.70;;;;;;;14.97;58.79;100254.75;1771052;81;21228;-79
2022/09/25 06:30:40;;;;;;;8.10;3.42;;;;;;;15.07;58.32;100257.95;1770820;81;21197;-78
2022/09/25 06:33:46;;;;;;;6.42;3.00;;;;;;;15.20;57.69;100263.20;1754936;81;21172;-78
2022/09/25 06:36:52;;;;;;;7.15;3.77;;;;;;;15.20;57.43;100265.95;1771578;81;21157;-78
2022/09/25 06:39:57;;;;;;;4.72;3.15;;;;;;;15.31;57.29;100266.19;1771137;81;21228;-78
2022/09/25 06:43:05;;;;;;;6.12;2.98;;;;;;;15.40;57.38;100271.51;1770201;81;21224;-78
2022/09/25 06:46:11;;;;;;;8.40;3.20;;;;;;;15.57;56.16;100268.16;1769164;80;21224;-78
2022/09/25 06:49:23;;;;;;;3.77;2.37;;;;;;;15.70;56.25;100267.86;1763345;81;21292;-78
2022/09/25 06:52:27;;;;;;;6.62;3.33;;;;;;;15.77;56.07;100277.01;1764049;81;21343;-78
2022/09/25 06:55:37;;;;;;;4.62;2.70;;;;;;;16.00;54.93;100277.97;1763979;81;21213;-78
2022/09/25 06:58:43;;;;;;;10.38;3.10;;;;;;;16.07;54.59;100271.37;1763756;81;21220;-79
2022/09/25 07:01:50;;;;;;;4.58;3.40;;;;;;;16.25;54.36;100267.12;1741749;81;21654;-78
2022/09/25 07:04:59;;;;;;;4.58;3.30;;;;;;;16.25;53.82;100269.88;1763969;81;21201;-78
2022/09/25 07:08:05;;;;;;;5.08;3.40;;;;;;;16.20;53.89;100270.52;1763686;81;21267;-79
2022/09/25 07:11:12;;;;;;;5.37;3.35;;;;;;;16.38;54.10;100280.91;1763910;81;21735;-78
2022/09/25 07:14:19;;;;;;;6.78;2.87;;;;;;;16.44;53.63;100276.42;1763900;81;21181;-78
2022/09/25 07:17:25;;;;;;;4.12;2.92;;;;;;;16.52;52.74;100277.05;1764237;81;21236;-78
2022/09/25 07:20:32;;;;;;;3.25;2.65;;;;;;;16.50;52.52;100275.02;1762771;81;21212;-78
2022/09/25 07:23:40;;;;;;;5.20;3.12;;;;;;;16.48;52.75;100274.94;1763401;81;21224;-79
2022/09/25 07:26:46;;;;;;;3.45;2.50;;;;;;;16.49;52.98;100276.09;1763901;81;21161;-79
2022/09/25 07:29:53;;;;;;;4.17;2.60;;;;;;;16.65;52.78;100269.24;1714618;81;21201;-78
2022/09/25 07:32:53;;;;;;;3.90;2.55;;;;;;;16.68;52.50;100276.26;1763905;81;21173;-79
2022/09/25 07:35:59;;;;;;;3.52;2.40;;;;;;;16.72;52.31;100273.41;1762498;81;21240;-79
2022/09/25 07:39:05;;;;;;;3.15;2.42;;;;;;;16.85;51.87;100276.98;1763202;81;21220;-78
2022/09/25 07:42:13;;;;;;;3.47;2.50;;;;;;;16.81;51.34;100269.34;1763921;81;21193;-79
2022/09/25 07:45:18;;;;;;;4.80;2.20;;;;;;;16.76;51.53;100270.53;1763827;81;21177;-79
2022/09/25 07:48:25;;;;;;;3.58;2.20;;;;;;;16.96;50.39;100265.77;1762760;81;21275;-78
2022/09/25 07:51:31;;;;;;;3.42;2.25;;;;;;;17.01;50.46;100270.11;1762813;81;21204;-78
2022/09/25 07:54:37;;;;;;;4.53;2.52;;;;;;;17.12;49.89;100272.70;1763161;81;21221;-78
2022/09/25 07:57:42;;;;;;;4.50;1.77;;;;;;;17.23;49.26;100272.56;1762584;81;21221;-79
2022/09/25 08:00:49;;;;;;;3.55;2.40;;;;;;;17.22;48.38;100268.95;1762436;81;21277;-78
2022/09/25 08:03:54;;;;;;;4.10;2.22;;;;;;;17.31;48.90;100270.91;1764008;81;21699;-79
2022/09/25 08:07:00;;;;;;;2.42;2.00;;;;;;;17.41;48.61;100267.66;1763982;81;21193;-79
2022/09/25 08:10:05;;;;;;;2.77;1.70;;;;;;;17.38;48.51;100266.20;1763026;81;21256;-79
2022/09/25 08:13:12;;;;;;;2.75;1.90;;;;;;;17.46;47.05;100266.48;1763968;81;21165;-79
2022/09/25 08:16:13;;;;;;;3.20;1.70;;;;;;;17.36;47.71;100265.55;1762695;81;21169;-79
2022/09/25 08:19:21;;;;;;;2.40;2.08;;;;;;;17.51;47.71;100275.80;1763949;81;21169;-78
2022/09/25 08:22:27;;;;;;;2.75;1.85;;;;;;;17.54;47.55;100267.03;1763852;81;21181;-79
2022/09/25 08:25:33;;;;;;;15.28;2.27;;;;;;;17.67;47.07;100263.87;1764883;81;21236;-78
2022/09/25 08:28:39;;;;;;;2.17;1.72;;;;;;;17.79;48.09;100262.97;1763854;81;21196;-79
2022/09/25 08:31:46;;;;;;;2.98;2.40;;;;;;;18.01;46.94;100266.18;1761682;81;21192;-79
2022/09/25 08:34:54;;;;;;;2.22;1.82;;;;;;;17.98;45.80;100265.27;1763916;81;21185;-78
2022/09/25 08:37:59;;;;;;;3.77;1.70;;;;;;;17.94;46.20;100261.25;1763976;81;21776;-79
2022/09/25 08:41:08;;;;;;;;;;;;;;;17.98;45.31;100263.88;1765943;81;21339;-78
2022/09/25 08:44:36;;;;;;;3.02;1.52;;;;;;;18.12;45.21;100258.54;1763877;81;20608;-79
2022/09/25 08:51:08;;;;;;;4.78;1.55;;;;;;;18.25;44.26;100252.55;1775472;81;21259;-79
2022/09/25 08:54:15;;;;;;;3.87;1.62;;;;;;;18.26;43.18;100258.42;1774965;81;21220;-79
2022/09/25 08:57:44;;;;;;;2.77;2.00;;;;;;;18.33;43.61;100252.27;1776239;81;21177;-79
2022/09/25 09:00:50;;;;;;;2.42;1.87;;;;;;;18.17;43.76;100260.63;1775145;81;21346;-79
2022/09/25 09:04:24;;;;;;;4.20;1.90;;;;;;;18.17;43.46;100255.63;1754778;81;21188;-79
2022/09/25 09:07:48;;;;;;;2.55;1.60;;;;;;;18.02;44.48;100258.21;1776741;81;21188;-79
2022/09/25 09:11:00;;;;;;;2.77;1.72;;;;;;;18.09;44.27;100263.13;1776311;81;21168;-78
2022/09/25 09:14:12;;;;;;;3.87;1.90;;;;;;;18.01;43.02;100260.64;1776804;81;21216;-78
2022/09/25 09:17:28;;;;;;;2.27;1.70;;;;;;;18.13;43.57;100257.45;1776820;81;21764;-78
2022/09/25 09:21:02;;;;;;;2.33;1.60;;;;;;;18.13;44.25;100261.61;1776675;81;21224;-78
2022/09/25 09:24:23;;;;;;;2.00;1.52;;;;;;;18.07;43.07;100265.30;1712534;83;21244;-78
2022/09/25 09:27:41;;;;;;;3.20;1.67;;;;;;;18.17;42.77;100270.31;1712702;83;21204;-78
2022/09/25 09:31:34;;;;;;;1.80;1.57;;;;;;;18.08;43.38;100257.84;1759872;81;21806;-78
2022/09/25 09:35:20;;;;;;;3.80;1.35;;;;;;;18.27;42.90;100251.27;1742056;82;21226;-78
2022/09/25 09:38:47;;;;;;;1.37;1.22;;;;;;;18.38;43.17;100240.80;1744306;81;21737;-79
2022/09/25 09:42:35;;;;;;;2.75;1.70;;;;;;;18.35;43.92;100245.98;1775822;81;21204;-79
2022/09/25 09:45:54;;;;;;;1.60;1.50;;;;;;;18.45;42.68;100237.14;1776232;81;21212;-79
2022/09/25 09:49:28;;;;;;;2.12;1.55;;;;;;;18.49;42.39;100233.68;1775561;80;21815;-78
2022/09/25 09:52:38;;;;;;;1.77;1.50;;;;;;;18.82;41.38;100239.38;1777782;80;21299;-79
2022/09/25 09:55:51;;;;;;;2.10;1.90;;;;;;;18.70;41.49;100234.32;1779167;80;21184;-78
2022/09/25 09:59:13;;;;;;;3.42;1.75;;;;;;;18.74;41.80;100237.78;1779363;80;22490;-78
2022/09/25 10:03:01;;;;;;;3.37;1.75;;;;;;;18.90;41.20;100237.14;1777844;80;21208;-78
2022/09/25 10:06:10;;;;;;;2.77;1.70;;;;;;;19.00;40.25;100239.36;1742137;82;21394;-78
2022/09/25 10:09:20;;;;;;;3.47;1.75;;;;;;;18.97;40.04;100243.16;1741962;82;21349;-78
2022/09/25 10:12:42;;;;;;;5.58;1.40;;;;;;;19.01;39.95;100242.46;1778393;80;21215;-78
2022/09/25 10:16:02;;;;;;;2.17;1.40;;;;;;;18.99;39.46;100227.97;1779985;80;21180;-78
2022/09/25 10:19:26;;;;;;;2.90;1.30;;;;;;;19.10;38.89;100227.20;1779423;80;21181;-78
2022/09/25 10:22:37;;;;;;;2.98;1.47;;;;;;;19.06;38.49;100232.91;1778257;80;21778;-79
2022/09/25 10:25:45;;;;;;;1.90;1.52;;;;;;;19.03;39.13;100223.66;1779256;80;21174;-78
2022/09/25 10:28:45;;;;;;;2.20;1.50;;;;;;;18.90;38.58;100223.83;1779365;80;21192;-78
2022/09/25 10:31:52;;;;;;;3.27;1.22;;;;;;;18.90;38.92;100226.59;1778287;80;21224;-78
2022/09/25 10:34:57;;;;;;;5.17;1.62;;;;;;;18.92;38.89;100231.39;1779476;80;21184;-79
2022/09/25 10:38:03;;;;;;;;;;;;;;;18.87;38.72;100225.16;1782152;80;21695;-79
2022/09/25 10:41:22;;;;;;;9.18;2.00;;;;;;;18.64;38.83;100227.22;1779376;80;20242;-78
2022/09/25 10:44:34;;;;;;;2.02;1.25;;;;;;;18.53;39.42;100234.89;1777771;80;21164;-79
2022/09/25 10:51:16;;;;;;;1.82;1.55;;;;;;;18.54;38.70;100226.91;1770446;80;21232;-79
2022/09/25 10:54:23;;;;;;;2.17;1.52;;;;;;;18.73;38.59;100226.40;1764225;81;21208;-78
2022/09/25 10:57:45;;;;;;;2.35;1.57;;;;;;;18.56;39.35;100230.28;1763857;81;21170;-78
2022/09/25 11:01:02;;;;;;;3.30;1.50;;;;;;;18.56;39.41;100232.20;1764240;81;21244;-78
2022/09/25 11:04:08;;;;;;;2.15;1.70;;;;;;;18.72;39.52;100233.00;1764088;81;21229;-78
2022/09/25 11:07:21;;;;;;;4.62;1.72;;;;;;;18.75;39.67;100224.77;1762657;81;21232;-78
2022/09/25 11:10:30;;;;;;;2.52;1.50;;;;;;;18.78;40.05;100234.02;1763333;81;21221;-79
2022/09/25 11:13:54;;;;;;;3.65;1.57;;;;;;;18.80;39.46;100230.46;1762910;81;21223;-78
2022/09/25 11:17:08;;;;;;;4.35;1.98;;;;;;;18.75;39.97;100229.77;1764258;81;21196;-78
2022/09/25 11:20:28;;;;;;;5.15;1.65;;;;;;;18.84;39.59;100237.23;1764158;81;21177;-79
2022/09/25 11:23:57;;;;;;;5.70;1.42;;;;;;;19.07;38.85;100230.42;1762759;81;21831;-78
2022/09/25 11:27:10;;;;;;;4.80;1.30;;;;;;;19.13;38.65;100232.80;1753601;81;21185;-79
2022/09/25 11:30:21;;;;;;;2.15;1.40;;;;;;;19.29;38.01;100229.90;1762421;81;21173;-78
2022/09/25 11:33:44;;;;;;;2.47;1.50;;;;;;;19.27;38.08;100233.45;1762483;81;21244;-78
2022/09/25 11:37:19;;;;;;;3.65;1.42;;;;;;;19.33;38.20;100235.28;1762479;81;21177;-78
2022/09/25 11:44:09;;;;;;;3.67;1.57;;;;;;;19.55;38.32;100228.13;1750494;81;21362;-78
2022/09/25 11:47:29;;;;;;;1.87;1.35;;;;;;;19.64;37.65;100225.34;1762520;81;21188;-78
2022/09/25 11:50:53;;;;;;;1.65;1.25;;;;;;;19.68;37.59;100224.88;1763567;81;22539;-78
2022/09/25 11:54:20;;;;;;;3.70;2.17;;;;;;;19.78;36.92;100226.52;1777917;80;21192;-78
2022/09/25 11:57:42;;;;;;;2.12;1.50;;;;;;;19.93;36.71;100222.73;1779948;80;21189;-78
2022/09/25 12:01:13;;;;;;;1.90;1.47;;;;;;;19.92;36.08;100215.50;1713415;84;21212;-78
2022/09/25 12:04:47;;;;;;;2.20;1.10;;;;;;;20.01;36.29;100229.33;1713232;83;21767;-78
2022/09/25 12:08:23;;;;;;;2.67;1.70;;;;;;;19.83;36.63;100221.94;1674336;83;21798;-78
2022/09/25 12:11:57;;;;;;;1.75;1.45;;;;;;;19.89;36.86;100218.20;1713649;83;21225;-78
2022/09/25 12:15:21;;;;;;;2.58;1.55;;;;;;;20.01;37.28;100224.33;1713079;84;21206;-78
2022/09/25 12:18:49;;;;;;;4.37;1.90;;;;;;;19.89;37.03;100218.74;1714574;83;21197;-78
2022/09/25 12:22:24;;;;;;;3.20;1.80;;;;;;;19.99;37.41;100219.53;1713024;84;21194;-78
2022/09/25 12:25:49;;;;;;;3.85;1.60;;;;;;;20.09;37.97;100209.55;1714649;83;21209;-78
2022/09/25 12:29:27;;;;;;;2.83;1.45;;;;;;;20.04;37.73;100217.75;1713055;84;21222;-79
2022/09/25 12:32:39;;;;;;;3.92;1.67;;;;;;;20.03;37.57;100209.09;1714613;83;21185;-79
2022/09/25 12:36:07;;;;;;;5.45;1.65;;;;;;;20.06;36.93;100225.28;1711628;84;21253;-79
2022/09/25 12:39:40;;;;;;;3.15;1.90;;;;;;;20.03;37.15;100217.97;1713167;83;21257;-79
2022/09/25 12:43:06;;;;;;;1.87;1.57;;;;;;;19.95;37.93;100225.26;1709949;82;21266;-79
2022/09/25 12:46:36;;;;;;;4.55;1.82;;;;;;;19.88;37.18;100210.13;1713752;83;21229;-79
2022/09/25 12:50:00;;;;;;;3.37;1.57;;;;;;;19.80;37.27;100223.80;1713852;83;21236;-78
2022/09/25 12:53:11;;;;;;;2.27;1.50;;;;;;;19.77;37.23;100210.97;1721260;82;21237;-79
2022/09/25 12:56:29;;;;;;;2.92;1.50;;;;;;;19.75;37.57;100207.56;1728257;83;21257;-79
2022/09/25 12:59:44;;;;;;;3.45;1.72;;;;;;;19.75;37.44;100200.63;1733545;83;21233;-79
2022/09/25 13:03:06;;;;;;;5.50;1.40;;;;;;;19.62;37.46;100208.66;1734030;83;21181;-78
2022/09/25 13:06:58;;;;;;;5.28;1.77;;;;;;;19.72;37.59;100205.29;1733613;83;21232;-78
2022/09/25 13:10:05;;;;;;;5.60;1.77;;;;;;;19.52;37.84;100202.23;1733538;83;21229;-78
2022/09/25 13:13:18;;;;;;;2.35;1.70;;;;;;;19.57;38.14;100193.20;1732194;83;21284;-78
2022/09/25 13:16:22;;;;;;;2.25;1.50;;;;;;;19.56;37.69;100195.12;1733640;83;21741;-78
2022/09/25 13:19:38;;;;;;;2.98;1.50;;;;;;;19.85;36.61;100176.73;1733836;83;21788;-78
2022/09/25 13:22:47;;;;;;;3.25;1.50;;;;;;;19.96;35.96;100179.23;1733734;83;21186;-78
2022/09/25 13:26:08;;;;;;;5.00;1.85;;;;;;;19.86;35.98;100185.39;1733623;83;21173;-79
2022/09/25 13:29:22;;;;;;;2.40;1.52;;;;;;;19.35;36.76;100185.99;1733643;83;21241;-79
2022/09/25 13:32:33;;;;;;;3.05;1.50;;;;;;;19.31;36.71;100177.84;1733669;83;21186;-79
2022/09/25 13:35:39;;;;;;;2.80;1.62;;;;;;;19.42;36.30;100188.10;1733718;83;21752;-79
2022/09/25 13:42:29;;;;;;;2.90;1.70;;;;;;;19.37;36.58;100193.52;1733403;83;21779;-78
2022/09/25 13:45:42;;;;;;;5.28;1.60;;;;;;;19.29;36.87;100196.11;1732428;83;21233;-78
2022/09/25 13:48:54;;;;;;;3.27;1.72;;;;;;;19.22;36.89;100195.89;1733690;83;21237;-78
2022/09/25 13:51:56;;;;;;;4.47;1.62;;;;;;;19.27;36.70;100198.80;1732233;83;21355;-78
2022/09/25 13:55:23;;;;;;;2.02;1.57;;;;;;;19.22;36.68;100197.28;1769716;81;21229;-78
2022/09/25 13:58:32;;;;;;;2.15;1.47;;;;;;;19.17;37.12;100195.75;1771917;81;21256;-79
2022/09/25 14:01:45;;;;;;;3.00;1.70;;;;;;;19.15;37.29;100191.30;1773080;81;21234;-79
2022/09/25 14:04:51;;;;;;;2.00;1.32;;;;;;;19.21;37.33;100194.20;1772468;81;21205;-79
2022/09/25 14:08:00;;;;;;;3.77;1.57;;;;;;;19.32;37.21;100189.23;1751981;81;21181;-79
2022/09/25 14:11:08;;;;;;;4.92;1.45;;;;;;;19.33;37.42;100190.37;1772975;81;21180;-79
2022/09/25 14:14:21;;;;;;;3.20;1.67;;;;;;;19.23;37.51;100200.34;1771722;81;21189;-78
2022/09/25 14:17:30;;;;;;;3.20;2.10;;;;;;;19.19;37.59;100199.97;1772998;81;21189;-79
2022/09/25 14:20:49;;;;;;;4.60;1.70;;;;;;;19.10;37.68;100199.48;1773110;81;21185;-79
2022/09/25 14:23:59;;;;;;;5.35;1.65;;;;;;;19.08;37.68;100197.46;1772966;81;21182;-79
2022/09/25 14:27:07;;;;;;;3.05;2.02;;;;;;;19.05;38.09;100203.47;1772874;81;21190;-79
2022/09/25 14:30:17;;;;;;;3.12;1.77;;;;;;;19.06;37.65;100198.25;1773051;81;21185;-78
2022/09/25 14:33:27;;;;;;;5.00;1.95;;;;;;;19.07;37.69;100206.02;1773725;81;21196;-78
2022/09/25 14:36:59;;;;;;;2.62;1.82;;;;;;;19.03;37.88;100210.34;1771839;81;21189;-79
2022/09/25 14:40:26;;;;;;;2.00;1.80;;;;;;;18.97;38.20;100207.97;1773201;81;21271;-79
2022/09/25 14:43:40;;;;;;;9.33;2.20;;;;;;;18.95;38.19;100208.72;1772632;81;21220;-79
2022/09/25 14:46:47;;;;;;;5.37;2.00;;;;;;;18.82;38.74;100208.89;1771774;81;21165;-79
2022/09/25 14:49:58;;;;;;;5.92;2.17;;;;;;;18.81;38.78;100204.44;1773102;81;21323;-79
2022/09/25 14:53:14;;;;;;;5.70;2.00;;;;;;;18.76;39.03;100205.14;1773232;81;21169;-79
2022/09/25 14:56:20;;;;;;;6.20;2.45;;;;;;;18.78;39.29;100201.61;1763052;81;21201;-78
2022/09/25 14:59:32;;;;;;;3.75;2.15;;;;;;;18.67;39.37;100205.11;1802117;79;21204;-78
2022/09/25 15:02:50;;;;;;;6.60;2.45;;;;;;;18.54;39.30;100204.75;1802508;79;21145;-78
2022/09/25 15:05:56;;;;;;;6.92;2.22;;;;;;;18.35;39.59;100198.36;1801898;79;21231;-78
2022/09/25 15:09:03;;;;;;;4.55;2.10;;;;;;;18.62;39.06;100204.96;1802662;79;21206;-78
2022/09/25 15:12:33;;;;;;;8.28;2.30;;;;;;;18.47;39.18;100197.05;1802630;79;21212;-78
2022/09/25 15:15:39;;;;;;;5.00;2.67;;;;;;;18.38;39.23;100189.58;1802373;79;21177;-79
2022/09/25 15:18:48;;;;;;;4.28;2.70;;;;;;;18.42;39.12;100198.28;1802633;79;21208;-79